Time;durP1;ratioP1;P1;durP2;ratioP2;P2;SDS_P1;SDS_P2;PMS_P1;PMS_P2;Temp;Humidity;BMP_temperature;BMP_pressure;BME280_temperature;BME280_humidity;BME280_pressure;Samples;Min_cycle;Max_cycle;Signal;HPM_P1;HPM_P2
2022/10/22 00:00:11;;;;;;;7.33;4.00;;;;;;;12.54;100.00;100220.19;696278;28;888;-63
2022/10/22 00:00:31;;;;;;;9.90;4.10;;;;;;;12.49;100.00;100222.06;698226;28;1459;-63
2022/10/22 00:00:52;;;;;;;8.17;4.30;;;;;;;12.47;100.00;100210.75;697693;28;805;-63
2022/10/22 00:01:12;;;;;;;6.63;3.88;;;;;;;12.49;100.00;100213.31;697696;28;942;-63
2022/10/22 00:01:33;;;;;;;6.10;3.67;;;;;;;12.51;100.00;100211.56;697897;28;847;-64
2022/10/22 00:01:53;;;;;;;5.93;3.70;;;;;;;12.50;100.00;100213.31;697321;28;1089;-64
2022/10/22 00:02:18;;;;;;;6.67;3.70;;;;;;;12.44;100.00;100211.66;698039;28;935;-63
2022/10/22 00:02:39;;;;;;;9.60;3.70;;;;;;;12.43;100.00;100211.69;697048;28;4455;-64
2022/10/22 00:02:59;;;;;;;8.43;3.95;;;;;;;12.41;100.00;100218.75;697725;28;891;-64
2022/10/22 00:03:19;;;;;;;10.10;4.00;;;;;;;12.41;100.00;100223.97;700166;28;1103;-63
2022/10/22 00:03:40;;;;;;;9.55;4.22;;;;;;;12.40;100.00;100217.84;700622;28;1383;-63
2022/10/22 00:04:00;;;;;;;8.63;4.17;;;;;;;12.40;100.00;100222.25;699666;28;872;-63
2022/10/22 00:04:21;;;;;;;8.00;3.87;;;;;;;12.42;100.00;100220.47;700191;28;1055;-63
2022/10/22 00:04:41;;;;;;;6.93;3.80;;;;;;;12.44;100.00;100218.66;699731;28;883;-64
2022/10/22 00:05:02;;;;;;;8.40;3.93;;;;;;;12.44;100.00;100223.91;698776;28;896;-63
2022/10/22 00:05:23;;;;;;;8.38;3.90;;;;;;;12.43;100.00;100227.41;698166;28;1160;-63
2022/10/22 00:05:43;;;;;;;7.67;4.10;;;;;;;12.41;100.00;100219.59;696707;28;4314;-64
2022/10/22 00:06:04;;;;;;;6.77;3.73;;;;;;;12.40;100.00;100223.09;698253;28;927;-64
2022/10/22 00:06:24;;;;;;;8.17;3.90;;;;;;;12.41;100.00;100219.59;698432;28;1132;-65
2022/10/22 00:06:44;;;;;;;7.05;3.70;;;;;;;12.41;100.00;100222.22;697767;28;962;-64
2022/10/22 00:07:05;;;;;;;8.30;3.90;;;;;;;12.41;100.00;100218.75;697020;28;1101;-64
2022/10/22 00:07:25;;;;;;;8.82;4.00;;;;;;;12.41;100.00;100226.59;698459;28;1249;-63
2022/10/22 00:07:46;;;;;;;10.40;3.90;;;;;;;12.39;100.00;100225.75;698528;28;891;-63
2022/10/22 00:08:06;;;;;;;8.70;3.90;;;;;;;12.36;100.00;100223.19;697745;28;912;-64
2022/10/22 00:08:26;;;;;;;9.20;4.07;;;;;;;12.34;100.00;100225.00;697394;28;1287;-63
2022/10/22 00:08:47;;;;;;;8.25;3.90;;;;;;;12.34;100.00;100222.38;697797;28;4369;-63
2022/10/22 00:09:07;;;;;;;7.37;3.70;;;;;;;12.35;100.00;100224.09;696657;28;1346;-63
2022/10/22 00:09:28;;;;;;;9.40;4.00;;;;;;;12.36;100.00;100225.81;695841;28;932;-64
2022/10/22 00:09:48;;;;;;;6.90;3.70;;;;;;;12.33;100.00;100220.63;695879;28;888;-64
2022/10/22 00:10:09;;;;;;;7.87;3.97;;;;;;;12.33;100.00;100223.25;692944;28;1024;-63
2022/10/22 00:10:29;;;;;;;9.60;4.22;;;;;;;12.33;100.00;100221.50;693032;28;1071;-63
2022/10/22 00:10:50;;;;;;;8.87;4.23;;;;;;;12.34;100.00;100222.38;693295;28;939;-63
2022/10/22 00:11:16;;;;;;;9.25;4.25;;;;;;;12.34;100.00;100232.88;695412;28;1124;-63
2022/10/22 00:11:36;;;;;;;8.35;4.18;;;;;;;12.33;100.00;100224.13;694304;28;1959;-64
2022/10/22 00:11:56;;;;;;;6.37;4.10;;;;;;;12.35;100.00;100224.09;696547;28;4325;-64
2022/10/22 00:12:17;;;;;;;7.38;4.03;;;;;;;12.35;100.00;100224.97;698072;28;1673;-63
2022/10/22 00:12:37;;;;;;;9.90;4.40;;;;;;;12.36;100.00;100220.56;696700;28;1097;-64
2022/10/22 00:12:58;;;;;;;9.40;4.53;;;;;;;12.37;100.00;100227.56;697598;28;952;-63
2022/10/22 00:13:18;;;;;;;9.10;4.33;;;;;;;12.36;100.00;100220.56;698483;28;3599;-63
2022/10/22 00:13:39;;;;;;;8.60;4.57;;;;;;;12.37;100.00;100223.16;699386;28;1037;-64
2022/10/22 00:14:00;;;;;;;9.50;4.90;;;;;;;12.38;100.00;100229.28;698513;28;1025;-63
2022/10/22 00:14:20;;;;;;;7.90;4.50;;;;;;;12.39;100.00;100228.38;695594;28;1236;-64
2022/10/22 00:14:41;;;;;;;6.60;4.32;;;;;;;12.38;100.00;100221.44;696202;28;4476;-64
2022/10/22 00:15:03;;;;;;;7.57;4.18;;;;;;;12.37;100.00;100222.31;695942;28;1046;-63
2022/10/22 00:15:23;;;;;;;8.82;4.50;;;;;;;12.38;100.00;100219.66;697616;28;1056;-64
2022/10/22 00:15:43;;;;;;;7.80;4.40;;;;;;;12.39;100.00;100225.75;695019;28;1462;-64
2022/10/22 00:16:04;;;;;;;6.90;4.20;;;;;;;12.41;100.00;100227.47;696339;28;895;-63
2022/10/22 00:16:24;;;;;;;7.10;4.20;;;;;;;12.42;100.00;100223.09;698291;28;963;-64
2022/10/22 00:16:45;;;;;;;6.97;4.00;;;;;;;12.43;100.00;100219.56;697240;28;971;-64
2022/10/22 00:17:05;;;;;;;7.82;4.30;;;;;;;12.47;100.00;100223.00;697302;28;5378;-64
2022/10/22 00:17:25;;;;;;;6.90;4.13;;;;;;;12.48;100.00;100224.72;697290;28;1148;-64
2022/10/22 00:17:48;;;;;;;5.43;3.70;;;;;;;12.47;100.00;100223.84;696312;28;4538;-64
2022/10/22 00:18:08;;;;;;;6.75;3.72;;;;;;;12.48;100.00;100230.81;698238;28;1133;-63
2022/10/22 00:18:29;;;;;;;8.05;4.28;;;;;;;12.49;100.00;100232.56;698325;28;777;-63
2022/10/22 00:18:49;;;;;;;8.23;4.70;;;;;;;12.50;100.00;100229.06;696961;28;979;-65
2022/10/22 00:19:12;;;;;;;8.63;4.40;;;;;;;12.49;100.00;100222.06;696365;28;1088;-64
2022/10/22 00:19:32;;;;;;;9.10;4.28;;;;;;;12.50;100.00;100230.78;697521;28;1295;-63
2022/10/22 00:19:52;;;;;;;8.40;4.10;;;;;;;12.47;100.00;100233.47;697357;28;924;-63
2022/10/22 00:20:13;;;;;;;7.93;4.07;;;;;;;12.46;100.00;100232.63;698380;28;923;-64
2022/10/22 00:20:33;;;;;;;6.00;4.00;;;;;;;12.49;100.00;100229.06;698407;28;1318;-64
2022/10/22 00:20:53;;;;;;;6.83;4.00;;;;;;;12.50;100.00;100226.44;695473;28;4344;-64
2022/10/22 00:21:14;;;;;;;8.45;4.00;;;;;;;12.51;100.00;100235.16;692735;28;1249;-64
2022/10/22 00:21:34;;;;;;;8.87;4.10;;;;;;;12.53;100.00;100230.72;692939;28;904;-63
2022/10/22 00:21:55;;;;;;;7.90;4.00;;;;;;;12.56;100.00;100228.06;692611;28;1142;-64
2022/10/22 00:22:15;;;;;;;7.10;4.17;;;;;;;12.57;100.00;100230.66;694275;28;947;-64
2022/10/22 00:22:36;;;;;;;6.87;4.30;;;;;;;12.56;100.00;100226.28;695580;28;873;-64
2022/10/22 00:22:56;;;;;;;9.17;4.40;;;;;;;12.55;100.00;100221.94;695773;28;1161;-65
2022/10/22 00:23:16;;;;;;;7.30;3.92;;;;;;;12.55;100.00;100229.81;695282;28;1025;-64
2022/10/22 00:23:40;;;;;;;8.93;4.07;;;;;;;12.58;100.00;100231.50;695018;28;4638;-64
2022/10/22 00:24:01;;;;;;;8.30;4.07;;;;;;;12.61;100.00;100228.81;697966;28;979;-64
2022/10/22 00:24:21;;;;;;;8.55;3.78;;;;;;;12.63;100.00;100229.66;697613;28;1142;-63
2022/10/22 00:24:42;;;;;;;8.57;3.80;;;;;;;12.60;100.00;100237.59;698578;28;908;-64
2022/10/22 00:25:02;;;;;;;7.63;4.10;;;;;;;12.59;100.00;100230.63;698504;28;950;-64
2022/10/22 00:25:23;;;;;;;7.03;4.10;;;;;;;12.59;100.00;100235.88;698351;28;1253;-64
2022/10/22 00:25:43;;;;;;;7.00;4.15;;;;;;;12.59;100.00;100228.84;697862;28;896;-64
2022/10/22 00:26:03;;;;;;;7.73;4.53;;;;;;;12.58;100.00;100231.50;698231;28;876;-64
2022/10/22 00:26:24;;;;;;;8.52;4.57;;;;;;;12.58;100.00;100231.50;697830;28;1053;-67
2022/10/22 00:26:44;;;;;;;8.40;4.60;;;;;;;12.56;100.00;100231.53;697263;28;4868;-64
2022/10/22 00:27:06;;;;;;;8.27;4.63;;;;;;;12.56;100.00;100223.69;695846;28;1354;-63
2022/10/22 00:27:26;;;;;;;7.45;4.10;;;;;;;12.57;100.00;100230.66;697061;28;1344;-63
2022/10/22 00:27:47;;;;;;;7.65;4.28;;;;;;;12.56;100.00;100225.44;696895;28;1278;-64
2022/10/22 00:28:07;;;;;;;7.90;4.30;;;;;;;12.56;100.00;100228.91;697424;28;927;-64
2022/10/22 00:28:28;;;;;;;9.43;3.95;;;;;;;12.55;100.00;100221.94;696928;28;1022;-63
2022/10/22 00:28:48;;;;;;;7.77;3.90;;;;;;;12.56;100.00;100234.16;697770;28;887;-64
2022/10/22 00:29:08;;;;;;;5.85;3.80;;;;;;;12.56;100.00;100228.91;697616;28;1059;-64
2022/10/22 00:29:29;;;;;;;6.37;3.53;;;;;;;12.56;100.00;100228.91;697724;28;1003;-63
2022/10/22 00:29:49;;;;;;;7.97;3.90;;;;;;;12.57;100.00;100230.66;697353;28;4710;-64
2022/10/22 00:30:10;;;;;;;7.60;3.80;;;;;;;12.58;100.00;100229.75;696882;28;910;-65
2022/10/22 00:30:31;;;;;;;6.10;3.80;;;;;;;12.60;100.00;100230.59;697371;28;967;-64
2022/10/22 00:30:56;;;;;;;9.47;4.00;;;;;;;12.61;100.00;100226.19;697033;28;1218;-65
2022/10/22 00:31:18;;;;;;;8.88;4.10;;;;;;;12.62;100.00;100229.69;696690;28;1045;-63
2022/10/22 00:31:38;;;;;;;8.20;4.18;;;;;;;12.62;100.00;100224.47;697245;28;1918;-64
2022/10/22 00:31:58;;;;;;;7.28;3.88;;;;;;;12.60;100.00;100230.59;695962;28;825;-64
2022/10/22 00:32:19;;;;;;;8.47;3.77;;;;;;;12.60;100.00;100229.72;698050;28;1072;-63
2022/10/22 00:32:39;;;;;;;8.07;4.00;;;;;;;12.60;100.00;100229.72;696673;28;4372;-64
2022/10/22 00:32:59;;;;;;;7.77;3.70;;;;;;;12.59;100.00;100222.75;698102;28;1018;-63
2022/10/22 00:33:20;;;;;;;6.77;3.97;;;;;;;12.60;100.00;100233.22;697358;28;1060;-64
2022/10/22 00:33:40;;;;;;;5.85;3.85;;;;;;;12.63;100.00;100228.78;697146;28;936;-63
2022/10/22 00:34:01;;;;;;;6.20;4.00;;;;;;;12.64;100.00;100231.41;696667;28;817;-65
2022/10/22 00:34:21;;;;;;;7.63;3.88;;;;;;;12.66;100.00;100224.34;699465;28;970;-64
2022/10/22 00:34:42;;;;;;;7.10;3.60;;;;;;;12.68;100.00;100233.06;697805;28;987;-65
2022/10/22 00:35:03;;;;;;;7.03;4.00;;;;;;;12.66;100.00;100232.22;695769;28;880;-65
2022/10/22 00:35:23;;;;;;;6.68;3.92;;;;;;;12.66;100.00;100234.84;695151;28;1189;-63
2022/10/22 00:35:44;;;;;;;7.65;4.03;;;;;;;12.65;100.00;100227.00;692544;28;4322;-65
2022/10/22 00:36:04;;;;;;;8.03;4.07;;;;;;;12.65;100.00;100232.25;695757;28;895;-64
2022/10/22 00:36:25;;;;;;;7.63;4.10;;;;;;;12.64;100.00;100231.41;695346;28;1138;-64
2022/10/22 00:36:49;;;;;;;7.13;3.90;;;;;;;12.64;100.00;100228.78;695748;28;1480;-63
2022/10/22 00:37:10;;;;;;;7.72;4.00;;;;;;;12.63;100.00;100234.03;694955;28;904;-64
2022/10/22 00:37:30;;;;;;;8.17;3.90;;;;;;;12.63;100.00;100239.28;693798;28;1197;-63
2022/10/22 00:37:50;;;;;;;7.53;4.18;;;;;;;12.62;100.00;100233.16;695164;28;916;-64
2022/10/22 00:38:11;;;;;;;6.80;3.97;;;;;;;12.62;100.00;100227.94;695437;28;1125;-63
2022/10/22 00:38:32;;;;;;;8.60;3.97;;;;;;;12.62;100.00;100237.56;695845;28;899;-63
2022/10/22 00:38:52;;;;;;;8.43;4.00;;;;;;;12.60;100.00;100229.72;695401;28;4627;-65
2022/10/22 00:39:15;;;;;;;7.28;3.70;;;;;;;12.60;100.00;100230.59;698354;28;1027;-64
2022/10/22 00:39:35;;;;;;;8.73;3.90;;;;;;;12.59;100.00;100230.63;697234;28;886;-64
2022/10/22 00:39:55;;;;;;;8.07;4.10;;;;;;;12.59;100.00;100230.63;697607;28;1188;-64
2022/10/22 00:40:16;;;;;;;8.00;4.17;;;;;;;12.59;100.00;100228.00;697655;28;1013;-64
2022/10/22 00:40:36;;;;;;;7.05;3.88;;;;;;;12.57;100.00;100230.66;697687;28;852;-64
2022/10/22 00:40:57;;;;;;;7.97;4.30;;;;;;;12.58;100.00;100232.34;697681;28;881;-63
2022/10/22 00:41:18;;;;;;;8.77;4.05;;;;;;;12.58;100.00;100229.75;697691;28;910;-64
2022/10/22 00:41:38;;;;;;;9.13;3.90;;;;;;;12.59;100.00;100231.47;699229;28;4364;-64
2022/10/22 00:41:58;;;;;;;7.50;4.13;;;;;;;12.59;100.00;100236.72;699399;28;849;-64
2022/10/22 00:42:21;;;;;;;7.63;4.00;;;;;;;12.61;100.00;100228.81;699425;28;980;-64
2022/10/22 00:42:41;;;;;;;8.07;3.92;;;;;;;12.60;100.00;100238.44;696428;28;955;-64
2022/10/22 00:43:02;;;;;;;9.10;4.35;;;;;;;12.60;100.00;100227.97;697471;28;789;-64
2022/10/22 00:43:23;;;;;;;7.50;4.17;;;;;;;12.60;100.00;100229.72;697399;28;991;-64
2022/10/22 00:44:04;;;;;;;10.02;4.43;;;;;;;12.60;100.00;100230.59;696125;28;914;-63
2022/10/22 00:45:01;;;;;;;7.72;4.20;;;;;;;12.60;100.00;100233.22;697021;28;1202;-64
2022/10/22 00:45:24;;;;;;;6.38;4.15;;;;;;;12.60;100.00;100232.34;696916;28;5228;-64
2022/10/22 00:45:44;;;;;;;8.13;4.10;;;;;;;12.60;100.00;100234.97;697927;28;729;-64
2022/10/22 00:46:05;;;;;;;9.07;4.18;;;;;;;12.59;100.00;100234.09;698309;28;943;-64
2022/10/22 00:46:26;;;;;;;7.10;3.90;;;;;;;12.60;100.00;100241.06;699117;28;1435;-65
2022/10/22 00:46:46;;;;;;;8.73;3.80;;;;;;;12.60;100.00;100234.97;697705;28;1378;-63
2022/10/22 00:47:06;;;;;;;6.82;3.78;;;;;;;12.61;100.00;100231.44;697682;28;967;-66
2022/10/22 00:47:35;;;;;;;6.00;3.80;;;;;;;12.61;100.00;100231.44;697544;28;879;-64
2022/10/22 00:48:05;;;;;;;9.43;4.32;;;;;;;12.62;100.00;100227.06;696409;28;4268;-64
2022/10/22 00:48:28;;;;;;;9.13;4.60;;;;;;;12.62;100.00;100234.94;698267;28;1141;-63
2022/10/22 00:48:50;;;;;;;10.00;4.75;;;;;;;12.63;100.00;100228.78;697625;28;836;-64
2022/10/22 00:49:10;;;;;;;8.25;4.40;;;;;;;12.62;100.00;100232.31;696668;28;939;-64
2022/10/22 00:49:31;;;;;;;9.10;4.73;;;;;;;12.60;100.00;100225.34;697562;28;927;-63
2022/10/22 00:49:52;;;;;;;9.43;4.72;;;;;;;12.62;100.00;100234.94;697015;28;1423;-64
2022/10/22 00:50:20;;;;;;;6.97;4.40;;;;;;;12.60;100.00;100227.13;697906;28;989;-64
2022/10/22 00:50:44;;;;;;;7.93;4.60;;;;;;;12.60;100.00;100227.13;696055;28;4390;-65
2022/10/22 00:51:08;;;;;;;7.45;4.28;;;;;;;12.60;100.00;100233.22;696881;28;990;-63
2022/10/22 00:51:32;;;;;;;8.50;4.13;;;;;;;12.59;100.00;100228.00;697672;28;1953;-63
2022/10/22 00:51:53;;;;;;;8.95;4.45;;;;;;;12.57;100.00;100228.03;697377;28;978;-64
2022/10/22 00:52:13;;;;;;;8.83;4.03;;;;;;;12.58;100.00;100231.50;697726;28;1259;-64
2022/10/22 00:52:35;;;;;;;11.13;4.50;;;;;;;12.59;100.00;100233.25;696851;28;916;-64
2022/10/22 00:52:56;;;;;;;9.85;4.60;;;;;;;12.59;100.00;100235.88;697534;28;1018;-64
2022/10/22 00:53:25;;;;;;;9.98;4.50;;;;;;;12.58;100.00;100227.13;697669;28;1028;-64
2022/10/22 00:53:54;;;;;;;10.27;4.65;;;;;;;12.58;100.00;100226.25;693460;28;4374;-64
2022/10/22 00:54:15;;;;;;;9.00;4.60;;;;;;;12.56;100.00;100228.91;695541;28;1066;-65
2022/10/22 00:54:36;;;;;;;8.07;4.57;;;;;;;12.54;100.00;100220.19;694021;28;896;-64
2022/10/22 00:54:57;;;;;;;7.80;4.50;;;;;;;12.54;100.00;100219.34;694278;28;1157;-64
2022/10/22 00:55:19;;;;;;;9.93;4.50;;;;;;;12.53;100.00;100231.59;695075;28;1447;-66
2022/10/22 00:55:42;;;;;;;10.23;4.90;;;;;;;12.53;100.00;100223.75;697107;28;951;-64
2022/10/22 00:56:04;;;;;;;9.63;4.35;;;;;;;12.54;100.00;100227.22;698661;28;956;-63
2022/10/22 00:56:24;;;;;;;9.20;4.10;;;;;;;12.53;100.00;100223.75;698171;28;1006;-65
2022/10/22 00:56:45;;;;;;;10.37;4.33;;;;;;;12.53;100.00;100226.38;693415;28;4752;-64
2022/10/22 00:57:05;;;;;;;8.52;4.20;;;;;;;12.53;100.00;100223.75;696500;28;871;-64
2022/10/22 00:57:26;;;;;;;8.23;4.13;;;;;;;12.55;100.00;100224.56;698450;28;1320;-63
2022/10/22 00:57:47;;;;;;;6.68;4.18;;;;;;;12.55;100.00;100227.19;698589;28;889;-64
2022/10/22 00:58:09;;;;;;;7.78;4.38;;;;;;;12.56;100.00;100226.28;698473;28;1083;-64
2022/10/22 00:58:33;;;;;;;8.38;4.03;;;;;;;12.56;100.00;100228.06;697384;28;1264;-64
2022/10/22 00:58:59;;;;;;;8.27;4.13;;;;;;;12.55;100.00;100227.19;698005;28;955;-64
2022/10/22 00:59:19;;;;;;;7.40;4.35;;;;;;;12.58;100.00;100234.97;696523;28;1193;-64
2022/10/22 00:59:40;;;;;;;8.25;4.30;;;;;;;12.57;100.00;100228.03;697269;28;4401;-63
2022/10/22 01:00:01;;;;;;;7.80;4.30;;;;;;;12.57;100.00;100228.03;698048;28;949;-64
2022/10/22 01:00:21;;;;;;;7.55;4.50;;;;;;;12.58;100.00;100224.50;697419;28;1042;-64
2022/10/22 01:00:42;;;;;;;7.65;4.50;;;;;;;12.57;100.00;100225.41;696957;28;1215;-64
2022/10/22 01:01:06;;;;;;;8.95;4.25;;;;;;;12.58;100.00;100223.63;697179;28;1018;-64
2022/10/22 01:01:29;;;;;;;9.70;4.60;;;;;;;12.58;100.00;100219.25;696457;28;991;-64
2022/10/22 01:01:51;;;;;;;11.27;4.65;;;;;;;12.58;100.00;100229.75;697411;28;1242;-63
2022/10/22 01:02:12;;;;;;;10.23;4.72;;;;;;;12.58;100.00;100231.50;695794;28;1173;-64
2022/10/22 01:02:33;;;;;;;8.90;4.73;;;;;;;12.57;100.00;100228.03;697712;28;921;-64
2022/10/22 01:02:54;;;;;;;6.35;4.15;;;;;;;12.58;100.00;100226.25;696887;28;4291;-64
2022/10/22 01:03:15;;;;;;;7.05;4.50;;;;;;;12.59;100.00;100231.47;696681;28;1058;-64
2022/10/22 01:03:35;;;;;;;6.68;4.28;;;;;;;12.62;100.00;100233.16;697098;28;1141;-64
2022/10/22 01:03:56;;;;;;;7.47;4.20;;;;;;;12.63;100.00;100229.66;698398;28;967;-63
2022/10/22 01:04:17;;;;;;;8.38;4.35;;;;;;;12.63;100.00;100229.66;697109;28;920;-63
2022/10/22 01:04:38;;;;;;;8.88;4.60;;;;;;;12.63;100.00;100231.41;697249;28;987;-64
2022/10/22 01:04:59;;;;;;;8.43;4.70;;;;;;;12.66;100.00;100231.38;697419;28;1013;-64
2022/10/22 01:05:19;;;;;;;10.97;4.80;;;;;;;12.64;100.00;100230.50;697695;28;975;-63
2022/10/22 01:06:02;;;;;;;9.80;4.97;;;;;;;12.64;100.00;100230.50;697579;28;4560;-63
2022/10/22 01:06:29;;;;;;;10.35;4.75;;;;;;;12.64;100.00;100223.53;696365;28;1093;-64
2022/10/22 01:06:50;;;;;;;8.68;4.50;;;;;;;12.62;100.00;100225.31;696777;28;1311;-64
2022/10/22 01:07:21;;;;;;;8.05;4.40;;;;;;;12.62;100.00;100227.94;697526;28;1223;-64
2022/10/22 01:07:46;;;;;;;8.38;4.32;;;;;;;12.62;100.00;100224.47;697285;28;765;-64
2022/10/22 01:08:14;;;;;;;8.00;4.38;;;;;;;12.61;100.00;100220.94;696396;28;1054;-64
2022/10/22 01:08:44;;;;;;;9.18;4.40;;;;;;;12.65;100.00;100221.75;697464;28;1066;-63
2022/10/22 01:09:05;;;;;;;7.03;4.25;;;;;;;12.64;100.00;100225.28;696662;28;4843;-64
2022/10/22 01:09:31;;;;;;;6.80;4.03;;;;;;;12.66;100.00;100223.50;696339;28;1293;-63
2022/10/22 01:09:58;;;;;;;6.68;4.00;;;;;;;12.63;100.00;100224.41;697456;28;871;-64
2022/10/22 01:10:24;;;;;;;7.45;4.38;;;;;;;12.63;100.00;100221.81;697675;28;1103;-62
2022/10/22 01:10:50;;;;;;;7.95;4.03;;;;;;;12.66;100.00;100228.75;697077;28;1043;-63
2022/10/22 01:11:19;;;;;;;7.32;4.00;;;;;;;12.70;100.00;100230.41;697060;28;1038;-63
2022/10/22 01:12:04;;;;;;;7.22;4.22;;;;;;;12.70;100.00;100230.41;695502;28;4585;-63
2022/10/22 01:12:43;;;;;;;9.02;4.43;;;;;;;12.71;100.00;100230.38;697020;28;901;-63
2022/10/22 01:13:33;;;;;;;9.85;4.72;;;;;;;12.71;100.00;100221.63;700129;28;932;-65
2022/10/22 01:14:20;;;;;;;9.43;4.93;;;;;;;12.68;100.00;100226.94;699750;28;1679;-65
2022/10/22 01:14:55;;;;;;;8.65;4.30;;;;;;;12.66;100.00;100229.59;690005;28;4521;-64
2022/10/22 01:15:22;;;;;;;8.23;4.15;;;;;;;12.67;100.00;100235.69;696634;28;1027;-64
2022/10/22 01:15:59;;;;;;;8.90;4.32;;;;;;;12.68;100.00;100229.56;696533;28;883;-63
2022/10/22 01:16:32;;;;;;;8.90;4.30;;;;;;;12.69;100.00;100232.16;696406;28;1057;-64
2022/10/22 01:16:55;;;;;;;11.50;4.60;;;;;;;12.71;100.00;100226.88;697653;28;5653;-64
2022/10/22 01:17:33;;;;;;;9.75;4.55;;;;;;;12.76;100.00;100230.28;698005;28;1190;-64
2022/10/22 01:18:15;;;;;;;13.77;4.88;;;;;;;12.77;100.00;100229.38;696763;28;4364;-64
2022/10/22 01:18:40;;;;;;;9.63;4.72;;;;;;;12.75;100.00;100226.78;696270;28;962;-63
2022/10/22 01:19:27;;;;;;;8.73;4.60;;;;;;;12.73;100.00;100218.06;697088;28;1413;-63
2022/10/22 01:20:03;;;;;;;8.70;4.50;;;;;;;12.73;100.00;100222.47;697368;28;832;-64
2022/10/22 01:20:35;;;;;;;5.38;3.70;;;;;;;12.71;100.00;100216.38;697140;28;1176;-63
2022/10/22 01:20:58;;;;;;;9.27;4.38;;;;;;;12.69;100.00;100219.03;697045;28;4361;-64
2022/10/22 01:21:25;;;;;;;8.18;4.18;;;;;;;12.68;100.00;100212.09;697462;28;974;-63
2022/10/22 01:21:55;;;;;;;8.07;3.88;;;;;;;12.67;100.00;100210.34;697183;28;1014;-63
2022/10/22 01:22:31;;;;;;;8.32;4.20;;;;;;;12.68;100.00;100211.19;697270;28;1014;-63
2022/10/22 01:23:23;;;;;;;10.32;4.18;;;;;;;12.66;100.00;100208.63;697700;28;1602;-65
2022/10/22 01:24:05;;;;;;;6.00;3.90;;;;;;;12.67;100.00;100209.47;698934;28;4314;-63
2022/10/22 01:24:30;;;;;;;8.27;3.95;;;;;;;12.69;100.00;100207.69;700706;28;1226;-63
2022/10/22 01:25:07;;;;;;;7.65;4.10;;;;;;;12.68;100.00;100217.34;701002;28;1123;-64
2022/10/22 01:25:45;;;;;;;8.65;4.50;;;;;;;12.68;100.00;100205.97;699121;28;947;-64
2022/10/22 01:26:12;;;;;;;9.27;4.63;;;;;;;12.69;100.00;100219.03;697695;28;959;-64
2022/10/22 01:26:56;;;;;;;8.98;4.53;;;;;;;12.69;100.00;100210.31;697929;28;829;-63
2022/10/22 01:27:30;;;;;;;9.07;4.57;;;;;;;12.68;100.00;100211.19;697310;28;4881;-64
2022/10/22 01:28:27;;;;;;;9.38;4.78;;;;;;;12.68;100.00;100217.34;697872;28;967;-63
2022/10/22 01:28:53;;;;;;;9.68;4.90;;;;;;;12.67;100.00;100217.34;696067;28;828;-64
2022/10/22 01:29:45;;;;;;;9.60;4.47;;;;;;;12.64;100.00;100212.16;698228;28;883;-63
2022/10/22 01:30:08;;;;;;;6.93;4.03;;;;;;;12.64;100.00;100212.16;697729;28;5006;-65
2022/10/22 01:30:29;;;;;;;9.60;4.22;;;;;;;12.66;100.00;100208.63;697626;28;879;-64
2022/10/22 01:30:52;;;;;;;10.50;4.30;;;;;;;12.66;100.00;100211.25;693670;28;1271;-63
2022/10/22 01:31:15;;;;;;;8.70;4.30;;;;;;;12.67;100.00;100209.47;693813;28;1185;-64
2022/10/22 01:31:46;;;;;;;8.40;4.18;;;;;;;12.64;100.00;100204.28;693628;28;1969;-64
2022/10/22 01:32:11;;;;;;;9.85;4.55;;;;;;;12.62;100.00;100216.59;697491;28;1221;-63
2022/10/22 01:32:38;;;;;;;7.85;4.60;;;;;;;12.60;100.00;100211.38;697585;28;928;-64
2022/10/22 01:33:02;;;;;;;8.57;4.70;;;;;;;12.60;100.00;100214.00;696570;28;4705;-66
2022/10/22 01:33:24;;;;;;;10.48;4.85;;;;;;;12.59;100.00;100207.88;697787;28;1073;-64
2022/10/22 01:33:47;;;;;;;7.25;4.13;;;;;;;12.60;100.00;100203.50;697402;28;1003;-63
2022/10/22 01:34:10;;;;;;;8.48;4.20;;;;;;;12.59;100.00;100207.88;697560;28;1058;-63
2022/10/22 01:34:32;;;;;;;8.02;4.03;;;;;;;12.62;100.00;100203.47;697361;28;876;-64
2022/10/22 01:35:00;;;;;;;9.13;4.00;;;;;;;12.63;100.00;100205.19;698078;28;1058;-64
2022/10/22 01:35:31;;;;;;;7.10;4.20;;;;;;;12.62;100.00;100212.19;698200;28;1086;-64
2022/10/22 01:35:52;;;;;;;9.10;4.13;;;;;;;12.62;100.00;100203.47;697331;28;4277;-63
2022/10/22 01:36:14;;;;;;;8.82;4.47;;;;;;;12.62;100.00;100195.59;697702;28;978;-65
2022/10/22 01:36:37;;;;;;;8.15;4.70;;;;;;;12.63;100.00;100200.81;696293;28;793;-64
2022/10/22 01:36:59;;;;;;;8.73;4.53;;;;;;;12.64;100.00;100196.44;698162;28;1282;-63
2022/10/22 01:37:21;;;;;;;9.10;4.32;;;;;;;12.64;100.00;100205.19;697081;28;982;-64
2022/10/22 01:37:49;;;;;;;10.07;4.68;;;;;;;12.64;100.00;100196.44;697088;28;986;-64
2022/10/22 01:38:13;;;;;;;9.05;4.80;;;;;;;12.64;100.00;100196.44;697565;28;1276;-63
2022/10/22 01:38:35;;;;;;;9.32;4.60;;;;;;;12.64;100.00;100204.28;698022;28;930;-64
2022/10/22 01:38:57;;;;;;;8.23;4.18;;;;;;;12.63;100.00;100192.94;697547;28;4492;-64
2022/10/22 01:39:19;;;;;;;7.05;4.25;;;;;;;12.64;100.00;100196.44;698682;28;1013;-64
2022/10/22 01:39:42;;;;;;;8.15;4.47;;;;;;;12.64;100.00;100193.81;696685;28;1296;-64
2022/10/22 01:40:04;;;;;;;7.95;4.40;;;;;;;12.65;100.00;100192.91;697909;28;1037;-63
2022/10/22 01:40:26;;;;;;;6.13;4.22;;;;;;;12.64;100.00;100192.06;697778;28;1148;-63
2022/10/22 01:40:49;;;;;;;7.15;4.25;;;;;;;12.67;100.00;100204.22;697110;28;911;-64
2022/10/22 01:41:10;;;;;;;8.43;4.72;;;;;;;12.68;100.00;100198.09;694716;28;1448;-64
2022/10/22 01:41:30;;;;;;;7.37;4.83;;;;;;;12.68;100.00;100198.09;695170;28;995;-64
2022/10/22 01:41:54;;;;;;;8.88;4.70;;;;;;;12.67;100.00;100199.88;694595;28;4400;-64
2022/10/22 01:42:14;;;;;;;9.77;4.50;;;;;;;12.67;100.00;100199.88;697804;28;1119;-63
2022/10/22 01:42:34;;;;;;;8.73;4.63;;;;;;;12.68;100.00;100196.34;697481;28;998;-64
2022/10/22 01:43:04;;;;;;;7.93;4.67;;;;;;;12.69;100.00;100191.97;695465;28;1172;-64
2022/10/22 01:43:25;;;;;;;10.38;4.63;;;;;;;12.69;100.00;100198.06;697846;28;1037;-64
2022/10/22 01:43:45;;;;;;;11.15;4.82;;;;;;;12.70;100.00;100193.69;691576;28;1090;-64
2022/10/22 01:44:05;;;;;;;8.67;4.70;;;;;;;12.69;100.00;100191.97;692223;28;920;-65
2022/10/22 01:44:26;;;;;;;8.30;4.60;;;;;;;12.69;100.00;100198.06;693227;28;1082;-64
2022/10/22 01:44:48;;;;;;;8.20;4.70;;;;;;;12.70;100.00;100191.91;691700;28;4662;-63
2022/10/22 01:45:13;;;;;;;9.35;4.60;;;;;;;12.69;100.00;100198.06;693051;28;1120;-64
2022/10/22 01:45:37;;;;;;;9.35;4.70;;;;;;;12.71;100.00;100198.03;695649;28;1053;-64
2022/10/22 01:46:01;;;;;;;9.30;5.20;;;;;;;12.74;100.00;100201.44;697481;28;879;-65
2022/10/22 01:46:24;;;;;;;10.43;5.53;;;;;;;12.78;100.00;100202.25;697349;28;1052;-65
2022/10/22 01:46:48;;;;;;;9.88;5.00;;;;;;;12.94;100.00;100197.53;697730;28;1034;-64
2022/10/22 01:47:42;;;;;;;9.65;4.72;;;;;;;13.16;100.00;100192.66;697533;28;1062;-63
2022/10/22 01:48:26;;;;;;;10.02;4.90;;;;;;;13.15;100.00;100192.69;697276;28;4886;-63
2022/10/22 01:49:11;;;;;;;7.88;4.50;;;;;;;13.09;100.00;100193.72;697922;28;1038;-64
2022/10/22 01:49:47;;;;;;;9.90;4.32;;;;;;;13.01;100.00;100190.41;700117;28;979;-64
2022/10/22 01:50:32;;;;;;;9.02;4.68;;;;;;;12.92;100.00;100194.09;700684;28;986;-64
2022/10/22 01:50:59;;;;;;;10.05;4.85;;;;;;;12.86;100.00;100192.47;700075;28;5455;-63
2022/10/22 01:51:38;;;;;;;8.13;4.90;;;;;;;12.87;100.00;100193.31;700190;28;987;-65
2022/10/22 01:52:10;;;;;;;7.78;4.53;;;;;;;12.84;100.00;100191.63;698469;28;907;-63
2022/10/22 01:52:44;;;;;;;8.02;4.50;;;;;;;12.83;100.00;100189.88;697878;28;1534;-64
2022/10/22 01:53:33;;;;;;;10.30;4.65;;;;;;;12.89;100.00;100189.78;697631;28;1093;-64
2022/10/22 01:54:29;;;;;;;11.82;4.90;;;;;;;12.89;100.00;100197.66;697877;28;4376;-65
2022/10/22 01:54:55;;;;;;;10.63;4.90;;;;;;;12.90;100.00;100198.50;692754;28;1426;-64
2022/10/22 01:55:32;;;;;;;10.18;4.85;;;;;;;12.89;100.00;100202.88;692193;28;1403;-64
2022/10/22 01:56:13;;;;;;;8.05;4.45;;;;;;;12.89;100.00;100202.88;693442;28;1258;-64